createdAt,value
2019-04-16T00:02:33.889Z,4.00
2019-04-16T00:05:10.807Z,4.00
2019-04-16T00:07:50.695Z,4.00
2019-04-16T00:10:53.206Z,4.00
2019-04-16T00:13:46.342Z,4.00
2019-04-16T00:16:17.714Z,4.00
2019-04-16T00:18:57.102Z,4.00
2019-04-16T00:21:38.415Z,4.00
2019-04-16T00:24:31.833Z,4.10
2019-04-16T00:27:03.637Z,4.20
2019-04-16T00:29:34.986Z,4.10
2019-04-16T00:32:13.108Z,4.10
2019-04-16T00:34:44.770Z,4.10
2019-04-16T00:37:20.442Z,4.10
2019-04-16T00:39:50.402Z,4.10
2019-04-16T00:42:21.546Z,4.10
2019-04-16T00:44:53.774Z,4.20
2019-04-16T00:47:25.020Z,4.20
2019-04-16T00:49:58.874Z,4.20
2019-04-16T00:52:29.138Z,4.30
2019-04-16T00:55:00.264Z,4.40
2019-04-16T00:57:31.376Z,4.40
2019-04-16T01:00:02.535Z,4.40
2019-04-16T01:02:33.925Z,4.40
2019-04-16T01:05:05.431Z,4.50
2019-04-16T01:07:36.610Z,4.40
2019-04-16T01:10:07.909Z,4.50
2019-04-16T01:12:39.114Z,4.50
2019-04-16T01:15:11.364Z,4.40
2019-04-16T01:17:42.710Z,4.40
2019-04-16T01:20:14.092Z,4.40
2019-04-16T01:22:46.852Z,4.40
2019-04-16T01:25:20.231Z,4.40
2019-04-16T01:28:00.891Z,4.40
2019-04-16T01:31:01.702Z,4.40
2019-04-16T01:33:40.668Z,4.40
2019-04-16T01:36:28.915Z,4.30
2019-04-16T01:39:14.725Z,4.40
2019-04-16T01:41:36.579Z,4.40
2019-04-16T01:44:07.829Z,4.40
2019-04-16T01:46:39.143Z,4.40
2019-04-16T01:49:11.537Z,4.40
2019-04-16T01:51:44.631Z,4.40
2019-04-16T01:54:16.045Z,4.40
2019-04-16T01:56:47.416Z,4.40
2019-04-16T01:59:18.341Z,4.40
2019-04-16T02:01:49.512Z,4.40
2019-04-16T02:04:20.603Z,4.40
2019-04-16T02:06:54.363Z,4.40
2019-04-16T02:09:24.603Z,4.40
2019-04-16T02:11:55.903Z,4.40
2019-04-16T02:14:27.204Z,4.40
2019-04-16T02:16:59.607Z,4.40
2019-04-16T02:19:32.929Z,4.30
2019-04-16T02:22:04.037Z,4.30
2019-04-16T02:24:35.380Z,4.30
2019-04-16T02:27:06.815Z,4.20
2019-04-16T02:29:38.000Z,4.20
2019-04-16T02:32:09.357Z,4.20
2019-04-16T02:34:40.470Z,4.20
2019-04-16T02:37:11.734Z,4.10
2019-04-16T02:39:50.020Z,4.10
2019-04-16T02:42:16.498Z,4.10
2019-04-16T02:44:50.083Z,4.10
2019-04-16T02:47:20.956Z,4.10
2019-04-16T02:49:56.455Z,4.10
2019-04-16T02:52:34.540Z,4.10
2019-04-16T02:55:42.645Z,4.10
2019-04-16T02:58:35.365Z,4.10
2019-04-16T03:01:25.966Z,4.10
2019-04-16T03:04:02.766Z,4.10
2019-04-16T03:06:34.145Z,4.00
2019-04-16T03:09:09.193Z,4.00
2019-04-16T03:11:39.978Z,4.00
2019-04-16T03:14:11.314Z,4.00
2019-04-16T03:17:01.732Z,4.00
2019-04-16T03:19:38.751Z,4.00
2019-04-16T03:22:09.004Z,3.90
2019-04-16T03:24:41.013Z,3.90
2019-04-16T03:27:12.826Z,3.90
2019-04-16T03:29:44.744Z,3.80
2019-04-16T03:32:16.739Z,3.80
2019-04-16T03:34:50.515Z,3.80
2019-04-16T03:37:21.939Z,3.70
2019-04-16T03:39:53.180Z,3.70
2019-04-16T03:42:27.042Z,3.60
2019-04-16T03:44:58.840Z,3.60
2019-04-16T03:47:30.448Z,3.50
2019-04-16T03:50:02.218Z,3.50
2019-04-16T03:52:37.464Z,3.40
2019-04-16T03:55:08.447Z,3.30
2019-04-16T03:57:40.312Z,3.30
2019-04-16T04:00:13.160Z,3.30
2019-04-16T04:02:45.338Z,3.20
2019-04-16T04:05:16.677Z,3.20
2019-04-16T04:07:48.285Z,3.20
2019-04-16T04:10:30.349Z,3.10
2019-04-16T04:12:52.860Z,3.00
2019-04-16T04:15:26.388Z,3.00
2019-04-16T04:17:57.902Z,3.00
2019-04-16T04:20:29.738Z,3.00
2019-04-16T04:23:01.665Z,3.00
2019-04-16T04:25:36.285Z,3.00
2019-04-16T04:28:06.705Z,3.00
2019-04-16T04:30:38.032Z,3.00
2019-04-16T04:33:10.370Z,3.00
2019-04-16T04:35:42.342Z,3.10
2019-04-16T04:38:14.288Z,3.20
2019-04-16T04:43:38.320Z,3.30
2019-04-16T04:46:14.553Z,3.40
2019-04-16T04:48:43.253Z,3.50
2019-04-16T04:51:17.150Z,3.50
2019-04-16T04:54:08.438Z,3.60
2019-04-16T04:56:40.486Z,3.60
2019-04-16T04:59:12.712Z,3.70
2019-04-16T05:01:45.662Z,3.80
2019-04-16T05:04:42.041Z,3.90
2019-04-16T05:07:15.650Z,4.00
2019-04-16T05:09:47.569Z,4.10
2019-04-16T05:12:21.335Z,4.20
2019-04-16T05:14:57.131Z,4.30
2019-04-16T05:17:30.052Z,4.40
2019-04-16T05:20:02.080Z,4.50
2019-04-16T05:22:33.894Z,4.60
2019-04-16T05:25:05.823Z,4.70
2019-04-16T05:27:41.336Z,4.80
2019-04-16T05:30:12.322Z,4.90
2019-04-16T05:32:44.328Z,5.10
2019-04-16T05:35:16.191Z,5.20
2019-04-16T05:37:48.467Z,5.30
2019-04-16T05:40:21.406Z,5.30
2019-04-16T05:42:55.852Z,5.40
2019-04-16T05:45:26.762Z,5.60
2019-04-16T05:47:58.700Z,5.70
2019-04-16T05:50:30.528Z,5.80
2019-04-16T05:53:05.414Z,5.90
2019-04-16T05:55:43.281Z,6.00
2019-04-16T05:58:15.254Z,6.10
2019-04-16T06:01:01.565Z,6.10
2019-04-16T06:03:33.261Z,6.20
2019-04-16T06:06:05.248Z,6.30
2019-04-16T06:08:40.403Z,6.50
2019-04-16T06:14:55.997Z,6.70
2019-04-16T06:17:55.920Z,6.80
2019-04-16T06:20:44.795Z,7.00
2019-04-16T06:23:36.311Z,7.20
2019-04-16T06:26:33.176Z,7.30
2019-04-16T06:29:21.586Z,7.50
2019-04-16T06:32:36.118Z,7.60
2019-04-16T06:35:42.616Z,7.70
2019-04-16T06:38:16.377Z,7.80
2019-04-16T06:41:05.285Z,8.00
2019-04-16T06:43:45.607Z,8.00
2019-04-16T06:46:39.430Z,8.20
2019-04-16T06:49:27.637Z,8.30
2019-04-16T06:52:27.673Z,8.50
2019-04-16T06:55:22.091Z,8.70
2019-04-16T06:58:17.794Z,8.80
2019-04-16T07:01:23.589Z,8.90
2019-04-16T07:04:17.190Z,9.10
2019-04-16T07:07:08.365Z,9.20
2019-04-16T07:09:45.656Z,9.30
2019-04-16T07:12:25.186Z,9.40
2019-04-16T07:14:57.510Z,9.50
2019-04-16T07:17:33.162Z,9.60
2019-04-16T07:20:04.833Z,9.70
2019-04-16T07:22:37.115Z,9.90
2019-04-16T07:25:09.451Z,10.10
2019-04-16T07:27:46.312Z,10.30
2019-04-16T07:30:25.439Z,10.50
2019-04-16T07:33:22.051Z,10.60
2019-04-16T07:36:15.318Z,10.80
2019-04-16T07:38:59.518Z,10.90
2019-04-16T07:41:49.582Z,11.20
2019-04-16T07:44:40.617Z,11.40
2019-04-16T07:47:37.717Z,11.60
2019-04-16T07:50:40.083Z,11.80
2019-04-16T07:53:47.211Z,11.90
2019-04-16T07:56:22.170Z,12.00
2019-04-16T07:58:54.814Z,12.20
2019-04-16T08:01:28.083Z,12.40
2019-04-16T08:04:01.463Z,12.60
2019-04-16T08:06:35.015Z,12.80
2019-04-16T08:09:22.158Z,13.00
2019-04-16T08:11:55.538Z,13.20
2019-04-16T08:14:27.604Z,13.50
2019-04-16T08:16:59.520Z,13.70
2019-04-16T08:19:37.226Z,13.90
2019-04-16T08:22:07.239Z,13.90
2019-04-16T08:24:43.046Z,13.90
2019-04-16T08:27:19.001Z,13.90
2019-04-16T08:29:55.269Z,14.00
2019-04-16T08:32:28.525Z,14.00
2019-04-16T08:35:09.126Z,14.20
2019-04-16T08:37:48.825Z,14.40
2019-04-16T08:40:15.525Z,14.60
2019-04-16T08:42:48.011Z,14.70
2019-04-16T08:45:30.876Z,14.90
2019-04-16T08:48:03.195Z,14.90
2019-04-16T08:50:35.152Z,15.00
2019-04-16T08:53:13.165Z,15.10
2019-04-16T08:55:41.840Z,15.30
2019-04-16T08:58:15.999Z,15.30
2019-04-16T09:00:51.059Z,15.30
2019-04-16T09:03:26.827Z,15.40
2019-04-16T09:06:04.309Z,15.50
2019-04-16T09:09:11.830Z,15.50
2019-04-16T09:11:35.470Z,15.40
2019-04-16T09:14:07.682Z,15.40
2019-04-16T09:16:50.556Z,15.40
2019-04-16T09:22:16.888Z,15.30
2019-04-16T09:24:57.700Z,15.20
2019-04-16T09:27:35.379Z,15.20
2019-04-16T09:30:31.961Z,15.30
2019-04-16T09:33:25.401Z,15.50
2019-04-16T09:36:15.249Z,15.60
2019-04-16T09:38:50.057Z,15.40
2019-04-16T09:41:28.048Z,15.20
2019-04-16T09:44:01.924Z,15.10
2019-04-16T09:46:50.438Z,15.20
2019-04-16T09:49:08.048Z,15.40
2019-04-16T09:51:39.989Z,15.50
2019-04-16T09:54:13.370Z,15.60
2019-04-16T09:56:46.145Z,15.60
2019-04-16T09:59:26.545Z,15.70
2019-04-16T10:02:12.807Z,15.80
2019-04-16T10:04:46.152Z,15.90
2019-04-16T10:07:18.319Z,16.10
2019-04-16T10:09:51.281Z,16.20
2019-04-16T10:12:24.504Z,16.40
2019-04-16T10:14:56.196Z,16.50
2019-04-16T10:17:31.767Z,16.70
2019-04-16T10:20:03.993Z,16.60
2019-04-16T10:22:36.022Z,16.70
2019-04-16T10:25:16.045Z,16.80
2019-04-16T10:28:01.964Z,16.70
2019-04-16T10:30:39.143Z,16.80
2019-04-16T10:33:11.683Z,16.90
2019-04-16T10:35:44.440Z,17.10
2019-04-16T10:38:34.503Z,17.40
2019-04-16T10:41:09.985Z,17.40
2019-04-16T10:43:59.321Z,17.40
2019-04-16T10:46:40.014Z,17.60
2019-04-16T10:49:20.135Z,17.80
2019-04-16T10:52:23.491Z,18.00
2019-04-16T10:55:09.357Z,18.00
2019-04-16T10:58:05.963Z,17.90
2019-04-16T11:00:45.616Z,17.80
2019-04-16T11:03:39.405Z,17.70
2019-04-16T11:06:15.352Z,17.80
2019-04-16T11:08:47.496Z,17.80
2019-04-16T11:11:20.245Z,17.60
2019-04-16T11:13:59.781Z,17.50
2019-04-16T11:16:26.480Z,17.50
2019-04-16T11:18:58.546Z,17.70
2019-04-16T11:21:31.400Z,17.90
2019-04-16T11:24:03.419Z,17.90
2019-04-16T11:26:36.930Z,17.90
2019-04-16T11:29:09.197Z,17.60
2019-04-16T11:31:41.642Z,17.40
2019-04-16T11:34:15.244Z,17.30
2019-04-16T11:36:47.497Z,17.30
2019-04-16T11:39:19.838Z,17.20
2019-04-16T11:41:52.216Z,17.00
2019-04-16T11:44:24.638Z,16.80
2019-04-16T11:46:56.730Z,16.60
2019-04-16T11:49:29.191Z,16.50
2019-04-16T11:52:01.430Z,16.60
2019-04-16T11:54:33.371Z,16.80
2019-04-16T11:57:07.639Z,16.80
2019-04-16T11:59:41.003Z,16.70
2019-04-16T12:02:17.869Z,16.70
2019-04-16T12:04:59.548Z,16.60
2019-04-16T12:07:47.247Z,16.60
2019-04-16T12:10:42.141Z,16.60
2019-04-16T12:13:32.424Z,16.70
2019-04-16T12:16:21.178Z,16.80
2019-04-16T12:19:12.722Z,16.80
2019-04-16T12:22:01.974Z,17.00
2019-04-16T12:24:52.685Z,17.10
2019-04-16T12:27:53.788Z,17.10
2019-04-16T12:30:44.255Z,17.00
2019-04-16T12:33:35.404Z,17.00
2019-04-16T12:36:34.279Z,17.10
2019-04-16T12:39:26.772Z,17.40
2019-04-16T12:42:26.557Z,17.30
2019-04-16T12:45:17.488Z,17.30
2019-04-16T12:47:59.091Z,17.40
2019-04-16T12:50:48.824Z,17.60
2019-04-16T12:53:42.723Z,17.70
2019-04-16T12:56:32.508Z,17.90
2019-04-16T12:59:13.226Z,18.00
2019-04-16T13:02:02.727Z,17.80
2019-04-16T13:04:56.485Z,17.60
2019-04-16T13:07:45.761Z,17.60
2019-04-16T13:10:40.485Z,17.60
2019-04-16T13:13:33.759Z,17.60
2019-04-16T13:19:43.529Z,17.70
2019-04-16T13:22:18.427Z,17.70
2019-04-16T13:25:07.500Z,17.70
2019-04-16T13:27:40.490Z,17.80
2019-04-16T13:30:12.814Z,17.60
2019-04-16T13:32:44.888Z,17.50
2019-04-16T13:35:17.021Z,17.40
2019-04-16T13:37:49.451Z,17.40
2019-04-16T13:40:21.558Z,17.30
2019-04-16T13:42:53.452Z,17.30
2019-04-16T13:45:35.782Z,17.30
2019-04-16T13:48:19.286Z,17.40
2019-04-16T13:50:53.749Z,17.50
2019-04-16T13:54:00.854Z,17.60
2019-04-16T13:56:43.138Z,17.80
2019-04-16T13:59:33.860Z,18.00
2019-04-16T14:02:17.266Z,18.10
2019-04-16T14:04:47.446Z,18.20
2019-04-16T14:07:19.245Z,18.20
2019-04-16T14:09:52.169Z,18.10
2019-04-16T14:12:40.865Z,18.20
2019-04-16T14:14:58.012Z,18.30
2019-04-16T14:17:30.345Z,18.30
2019-04-16T14:20:03.526Z,18.60
2019-04-16T14:22:35.537Z,19.10
2019-04-16T14:25:09.723Z,19.40
2019-04-16T14:27:41.533Z,19.70
2019-04-16T14:30:16.490Z,19.80
2019-04-16T14:33:09.237Z,19.70
2019-04-16T14:35:44.581Z,19.30
2019-04-16T14:38:19.140Z,19.00
2019-04-16T14:40:52.359Z,19.10
2019-04-16T14:43:30.152Z,19.10
2019-04-16T14:46:01.925Z,19.00
2019-04-16T14:48:34.352Z,18.60
2019-04-16T14:51:06.648Z,18.00
2019-04-16T14:54:06.297Z,17.60
2019-04-16T14:56:59.273Z,17.90
2019-04-16T14:59:36.892Z,18.10
2019-04-16T15:02:24.264Z,18.30
2019-04-16T15:05:15.453Z,18.80
2019-04-16T15:08:03.886Z,19.20
2019-04-16T15:11:05.696Z,19.10
2019-04-16T15:13:46.244Z,19.50
2019-04-16T15:16:33.933Z,19.70
2019-04-16T15:19:30.897Z,18.90
2019-04-16T15:22:20.453Z,19.30
2019-04-16T15:25:04.225Z,19.90
2019-04-16T15:28:03.620Z,19.50
2019-04-16T15:31:02.829Z,19.30
2019-04-16T15:33:43.608Z,18.90
2019-04-16T15:36:21.837Z,18.10
2019-04-16T15:39:29.756Z,17.10
2019-04-16T15:42:17.209Z,17.10
2019-04-16T15:45:08.230Z,17.20
2019-04-16T15:48:08.095Z,16.40
2019-04-16T15:51:03.599Z,15.60
2019-04-16T15:53:41.274Z,15.30
2019-04-16T15:56:43.696Z,15.30
2019-04-16T15:59:45.653Z,15.00
2019-04-16T16:02:28.240Z,14.90
2019-04-16T16:05:21.026Z,14.60
2019-04-16T16:08:01.814Z,14.30
2019-04-16T16:10:37.831Z,15.10
2019-04-16T16:13:09.203Z,15.00
2019-04-16T16:15:41.206Z,14.80
2019-04-16T16:18:12.190Z,15.10
2019-04-16T16:20:43.140Z,15.10
2019-04-16T16:23:14.366Z,14.60
2019-04-16T16:25:45.307Z,14.20
2019-04-16T16:28:16.654Z,14.30
2019-04-16T16:30:50.365Z,14.50
2019-04-16T16:33:21.402Z,14.30
2019-04-16T16:35:58.986Z,13.40
2019-04-16T16:38:25.454Z,12.70
2019-04-16T16:40:57.509Z,12.40
2019-04-16T16:43:28.546Z,12.40
2019-04-16T16:46:08.543Z,12.70
2019-04-16T16:48:39.790Z,12.70
2019-04-16T16:51:11.057Z,12.30
2019-04-16T16:53:55.531Z,11.20
2019-04-16T16:56:35.977Z,10.30
2019-04-16T16:59:23.429Z,9.70
2019-04-16T17:02:16.074Z,9.20
2019-04-16T17:04:49.157Z,9.00
2019-04-16T17:07:20.200Z,8.80
2019-04-16T17:09:51.272Z,8.70
2019-04-16T17:12:23.080Z,8.60
2019-04-16T17:14:54.139Z,8.50
2019-04-16T17:17:25.178Z,8.40
2019-04-16T17:19:56.207Z,8.20
2019-04-16T17:25:35.252Z,8.10
2019-04-16T17:27:52.336Z,7.90
2019-04-16T17:30:23.647Z,7.90
2019-04-16T17:32:54.611Z,7.80
2019-04-16T17:35:25.820Z,7.70
2019-04-16T17:38:01.855Z,7.50
2019-04-16T17:40:58.989Z,7.50
2019-04-16T17:43:39.659Z,7.50
2019-04-16T17:46:19.669Z,7.40
2019-04-16T17:49:01.901Z,7.30
2019-04-16T17:51:47.171Z,7.30
2019-04-16T17:54:29.289Z,7.20
2019-04-16T17:57:22.866Z,7.20
2019-04-16T18:00:05.659Z,7.20
2019-04-16T18:02:54.973Z,7.20
2019-04-16T18:05:33.498Z,7.10
2019-04-16T18:08:21.716Z,7.00
2019-04-16T18:10:57.454Z,7.00
2019-04-16T18:13:52.142Z,7.00
2019-04-16T18:16:49.981Z,6.90
2019-04-16T18:19:49.559Z,6.90
2019-04-16T18:22:41.923Z,6.80
2019-04-16T18:25:30.903Z,6.80
2019-04-16T18:28:10.451Z,6.80
2019-04-16T18:30:55.192Z,6.80
2019-04-16T18:33:49.220Z,6.70
2019-04-16T18:36:45.313Z,6.70
2019-04-16T18:39:38.330Z,6.70
2019-04-16T18:45:26.331Z,6.70
2019-04-16T18:48:12.983Z,6.80
2019-04-16T18:50:38.286Z,6.70
2019-04-16T18:53:11.577Z,6.70
2019-04-16T19:14:45.271Z,6.70
2019-04-16T19:24:04.986Z,6.60
2019-04-16T19:30:04.534Z,6.50
2019-04-16T19:39:16.366Z,6.50
2019-04-16T19:48:34.269Z,6.50
2019-04-16T19:54:19.934Z,6.40
2019-04-16T20:09:24.471Z,6.30
2019-04-16T20:15:43.181Z,6.30
2019-04-16T20:24:55.481Z,6.20
2019-04-16T20:31:04.283Z,6.20
2019-04-16T20:40:14.673Z,6.30
2019-04-16T20:46:04.554Z,6.40
2019-04-16T20:48:36.904Z,6.40
2019-04-16T20:51:09.199Z,6.40
2019-04-16T20:53:42.048Z,6.40
2019-04-16T20:56:20.214Z,6.40
2019-04-16T20:58:46.944Z,6.40
2019-04-16T21:01:32.714Z,6.50
2019-04-16T21:04:04.687Z,6.50
2019-04-16T21:06:31.193Z,6.40
2019-04-16T21:09:02.546Z,6.40
2019-04-16T21:11:40.254Z,6.30
2019-04-16T21:14:08.947Z,6.30
2019-04-16T21:16:40.201Z,6.30
2019-04-16T21:19:23.007Z,6.40
2019-04-16T21:21:44.464Z,6.40
2019-04-16T21:24:16.210Z,6.50
2019-04-16T21:26:51.029Z,6.60
2019-04-16T21:30:17.754Z,6.60
2019-04-16T21:32:57.886Z,6.70
2019-04-16T21:35:33.200Z,6.70
2019-04-16T21:38:33.182Z,6.70
2019-04-16T21:41:04.408Z,6.70
2019-04-16T21:43:35.755Z,6.60
2019-04-16T21:46:08.296Z,6.60
2019-04-16T21:48:40.624Z,6.60
2019-04-16T21:51:12.239Z,6.60
2019-04-16T21:53:43.491Z,6.60
2019-04-16T21:56:15.904Z,6.70
2019-04-16T21:58:50.147Z,6.80
2019-04-16T22:01:28.240Z,6.80
2019-04-16T22:04:03.599Z,6.80
2019-04-16T22:06:34.824Z,6.90
2019-04-16T22:09:07.694Z,6.90
2019-04-16T22:11:44.321Z,6.90
2019-04-16T22:14:14.127Z,6.80
2019-04-16T22:16:45.641Z,6.80
2019-04-16T22:19:17.428Z,6.80
2019-04-16T22:21:48.596Z,6.80
2019-04-16T22:24:22.674Z,6.80
2019-04-16T22:26:53.498Z,6.80
2019-04-16T22:29:24.874Z,6.90
2019-04-16T22:31:58.073Z,6.90
2019-04-16T22:34:29.769Z,6.90
2019-04-16T22:37:02.329Z,6.90
2019-04-16T22:39:56.191Z,6.90
2019-04-16T22:42:49.096Z,6.90
2019-04-16T22:45:45.408Z,7.00
2019-04-16T22:48:17.118Z,7.10
2019-04-16T22:50:50.096Z,7.10
2019-04-16T22:53:21.726Z,7.10
2019-04-16T22:55:56.373Z,7.10
2019-04-16T22:58:28.596Z,7.10
2019-04-16T23:01:05.548Z,7.10
2019-04-16T23:03:36.787Z,7.10
2019-04-16T23:06:08.318Z,7.10
2019-04-16T23:08:40.504Z,7.10
2019-04-16T23:11:12.608Z,7.00
2019-04-16T23:13:43.763Z,7.00
2019-04-16T23:16:14.884Z,7.00
2019-04-16T23:18:48.772Z,6.90
2019-04-16T23:21:18.914Z,6.80
2019-04-16T23:23:52.274Z,6.60
2019-04-16T23:26:23.732Z,6.50
2019-04-16T23:28:54.993Z,6.30
2019-04-16T23:31:26.124Z,6.20
2019-04-16T23:33:57.443Z,6.20
2019-04-16T23:36:29.961Z,6.10
2019-04-16T23:39:04.320Z,6.00
2019-04-16T23:41:35.846Z,6.00
2019-04-16T23:44:25.769Z,6.00
2019-04-16T23:47:19.936Z,5.90
2019-04-16T23:50:12.903Z,5.90
2019-04-16T23:52:55.600Z,5.80
2019-04-16T23:56:00.829Z,5.80
2019-04-16T23:58:37.498Z,5.80
